createdAt,value
2022-11-29T00:03:32.253Z,1.70
2022-11-29T00:06:05.966Z,1.40
2022-11-29T00:08:34.132Z,1.75
2022-11-29T00:11:05.327Z,1.83
2022-11-29T00:13:33.145Z,1.40
2022-11-29T00:16:05.636Z,1.60
2022-11-29T00:18:33.790Z,1.52
2022-11-29T00:21:01.768Z,1.52
2022-11-29T00:23:29.513Z,1.30
2022-11-29T00:26:04.330Z,1.60
2022-11-29T00:28:32.149Z,1.30
2022-11-29T00:31:00.021Z,1.60
2022-11-29T00:33:29.225Z,1.55
2022-11-29T00:35:56.958Z,1.50
2022-11-29T00:38:24.660Z,1.50
2022-11-29T00:40:53.107Z,1.65
2022-11-29T00:43:20.837Z,1.70
2022-11-29T00:45:48.695Z,1.40
2022-11-29T00:48:16.491Z,1.80
2022-11-29T00:50:45.620Z,1.70
2022-11-29T00:53:13.391Z,1.52
2022-11-29T00:55:41.248Z,1.45
2022-11-29T00:58:09.012Z,1.80
2022-11-29T01:00:36.770Z,1.40
2022-11-29T01:03:04.820Z,1.60
2022-11-29T01:05:32.926Z,1.60
2022-11-29T01:08:02.047Z,1.60
2022-11-29T01:10:29.847Z,1.70
2022-11-29T01:12:57.614Z,1.80
2022-11-29T01:15:25.361Z,1.27
2022-11-29T01:17:53.416Z,1.50
2022-11-29T01:20:21.291Z,1.60
2022-11-29T01:22:49.529Z,1.48
2022-11-29T01:25:19.676Z,1.48
2022-11-29T01:27:47.889Z,1.60
2022-11-29T01:30:16.285Z,1.65
2022-11-29T01:32:44.033Z,1.60
2022-11-29T01:35:11.800Z,1.70
2022-11-29T01:37:39.562Z,1.40
2022-11-29T01:40:08.697Z,1.45
2022-11-29T01:42:37.799Z,1.80
2022-11-29T01:45:24.302Z,1.67
2022-11-29T01:47:55.809Z,1.70
2022-11-29T01:50:23.781Z,1.45
2022-11-29T01:52:51.770Z,1.63
2022-11-29T01:55:20.073Z,1.42
2022-11-29T01:57:49.986Z,1.50
2022-11-29T02:02:52.947Z,1.60
2022-11-29T02:05:21.405Z,1.50
2022-11-29T02:07:53.101Z,1.60
2022-11-29T02:10:23.774Z,1.50
2022-11-29T02:13:01.358Z,1.42
2022-11-29T02:15:44.432Z,1.40
2022-11-29T02:18:15.596Z,1.70
2022-11-29T02:21:17.465Z,1.92
2022-11-29T02:24:16.055Z,1.30
2022-11-29T02:27:03.611Z,1.60
2022-11-29T02:29:48.484Z,1.42
2022-11-29T02:33:01.883Z,1.52
2022-11-29T02:35:43.187Z,1.65
2022-11-29T02:38:30.771Z,1.50
2022-11-29T02:41:12.995Z,1.55
2022-11-29T02:44:20.659Z,1.50
2022-11-29T02:47:02.340Z,1.70
2022-11-29T02:49:51.032Z,1.60
2022-11-29T02:52:26.376Z,1.60
2022-11-29T02:55:02.198Z,1.52
2022-11-29T02:57:38.994Z,1.50
2022-11-29T03:00:10.981Z,1.50
2022-11-29T03:02:46.593Z,1.60
2022-11-29T03:05:23.558Z,1.67
2022-11-29T03:07:58.437Z,1.48
2022-11-29T03:10:35.113Z,1.70
2022-11-29T03:13:07.654Z,1.60
2022-11-29T03:15:39.884Z,1.30
2022-11-29T03:18:23.935Z,1.77
2022-11-29T03:21:07.018Z,1.60
2022-11-29T03:23:40.175Z,1.73
2022-11-29T03:26:11.807Z,1.40
2022-11-29T03:28:44.344Z,1.90
2022-11-29T03:31:17.305Z,1.80
2022-11-29T03:33:53.489Z,1.60
2022-11-29T03:36:33.494Z,1.70
2022-11-29T03:39:06.016Z,1.75
2022-11-29T03:41:41.071Z,1.70
2022-11-29T03:44:14.134Z,1.75
2022-11-29T03:46:49.509Z,1.38
2022-11-29T03:49:22.574Z,1.50
2022-11-29T03:52:02.128Z,1.90
2022-11-29T03:56:59.063Z,1.70
2022-11-29T03:59:48.379Z,1.42
2022-11-29T04:02:52.912Z,1.73
2022-11-29T04:05:37.545Z,1.83
2022-11-29T04:08:51.866Z,1.67
2022-11-29T04:11:55.705Z,2.00
2022-11-29T04:14:34.921Z,1.70
2022-11-29T04:17:22.867Z,1.90
2022-11-29T04:20:26.661Z,1.70
2022-11-29T04:23:19.573Z,1.73
2022-11-29T04:26:09.953Z,1.58
2022-11-29T04:29:16.171Z,1.60
2022-11-29T04:32:04.471Z,1.77
2022-11-29T04:34:58.253Z,1.85
2022-11-29T04:38:00.397Z,1.70
2022-11-29T04:40:43.479Z,1.98
2022-11-29T04:43:30.858Z,1.30
2022-11-29T04:46:14.886Z,1.90
2022-11-29T04:49:02.584Z,1.45
2022-11-29T04:51:44.926Z,1.80
2022-11-29T04:54:20.671Z,1.70
2022-11-29T04:56:52.204Z,2.20
2022-11-29T04:59:27.081Z,1.80
2022-11-29T05:02:06.404Z,1.42
2022-11-29T05:04:46.141Z,1.67
2022-11-29T05:07:22.680Z,1.38
2022-11-29T05:10:02.041Z,1.58
2022-11-29T05:12:37.035Z,1.65
2022-11-29T05:15:43.608Z,1.67
2022-11-29T05:18:22.224Z,1.60
2022-11-29T05:21:00.271Z,1.60
2022-11-29T05:23:40.513Z,1.60
2022-11-29T05:26:17.218Z,1.60
2022-11-29T05:28:55.998Z,1.55
2022-11-29T05:31:48.157Z,1.70
2022-11-29T05:34:34.746Z,1.80
2022-11-29T05:37:29.367Z,1.40
2022-11-29T05:40:22.348Z,1.88
2022-11-29T05:43:06.020Z,1.60
2022-11-29T05:45:42.025Z,1.75
2022-11-29T05:48:18.733Z,1.63
2022-11-29T05:50:53.469Z,1.75
2022-11-29T05:53:26.728Z,1.80
2022-11-29T05:56:04.341Z,1.65
2022-11-29T05:58:42.343Z,1.55
2022-11-29T06:01:21.270Z,1.77
2022-11-29T06:04:00.044Z,1.50
2022-11-29T06:06:36.834Z,1.67
2022-11-29T06:09:12.603Z,1.80
2022-11-29T06:11:45.885Z,1.60
2022-11-29T06:14:25.615Z,2.08
2022-11-29T06:17:06.707Z,1.75
2022-11-29T06:19:59.582Z,1.95
2022-11-29T06:22:47.542Z,1.92
2022-11-29T06:25:24.588Z,1.80
2022-11-29T06:28:07.107Z,1.30
2022-11-29T06:30:50.567Z,1.65
2022-11-29T06:33:23.649Z,1.60
2022-11-29T06:36:08.511Z,1.80
2022-11-29T06:38:36.489Z,1.80
2022-11-29T06:41:04.650Z,2.10
2022-11-29T06:43:33.549Z,1.77
2022-11-29T06:46:07.829Z,2.03
2022-11-29T06:48:40.238Z,1.88
2022-11-29T06:51:16.813Z,1.80
2022-11-29T06:53:50.811Z,1.80
2022-11-29T06:56:27.119Z,1.90
2022-11-29T06:59:03.045Z,1.67
2022-11-29T07:01:41.000Z,1.60
2022-11-29T07:04:26.457Z,1.25
2022-11-29T07:06:56.365Z,1.30
2022-11-29T07:09:29.200Z,1.90
2022-11-29T07:11:57.621Z,2.10
2022-11-29T07:14:26.083Z,1.80
2022-11-29T07:17:05.395Z,1.80
2022-11-29T07:19:46.036Z,1.77
2022-11-29T07:22:31.646Z,1.48
2022-11-29T07:25:04.293Z,1.98
2022-11-29T07:27:41.156Z,1.73
2022-11-29T07:30:14.121Z,1.83
2022-11-29T07:32:59.926Z,1.80
2022-11-29T07:35:36.101Z,1.50
2022-11-29T07:38:14.041Z,1.70
2022-11-29T07:40:50.485Z,1.90
2022-11-29T07:43:32.022Z,1.60
2022-11-29T07:46:01.168Z,2.05
2022-11-29T07:48:28.929Z,1.63
2022-11-29T07:50:57.877Z,1.52
2022-11-29T07:53:27.052Z,1.70
2022-11-29T07:55:54.913Z,1.75
2022-11-29T07:58:22.709Z,1.58
2022-11-29T08:00:50.558Z,1.50
2022-11-29T08:03:18.370Z,1.30
2022-11-29T08:05:48.195Z,1.30
2022-11-29T08:08:16.392Z,1.20
2022-11-29T08:10:45.630Z,1.45
2022-11-29T08:13:13.569Z,1.70
2022-11-29T08:15:45.401Z,1.50
2022-11-29T08:18:13.237Z,1.30
2022-11-29T08:20:41.799Z,1.40
2022-11-29T08:23:12.017Z,1.60
2022-11-29T08:25:40.372Z,1.38
2022-11-29T08:28:10.008Z,1.40
2022-11-29T08:33:05.715Z,1.40
2022-11-29T08:35:35.457Z,1.15
2022-11-29T08:38:03.785Z,1.13
2022-11-29T08:40:31.691Z,1.20
2022-11-29T08:42:59.504Z,1.10
2022-11-29T08:45:28.840Z,1.40
2022-11-29T08:47:56.537Z,1.30
2022-11-29T08:50:25.575Z,1.23
2022-11-29T08:53:11.008Z,1.40
2022-11-29T08:55:42.618Z,1.17
2022-11-29T08:58:13.421Z,1.13
2022-11-29T09:00:45.547Z,1.40
2022-11-29T09:03:31.549Z,1.30
2022-11-29T09:05:59.639Z,1.08
2022-11-29T09:08:27.399Z,1.00
2022-11-29T09:10:55.136Z,1.10
2022-11-29T09:13:22.835Z,1.20
2022-11-29T09:15:51.944Z,1.05
2022-11-29T09:18:19.774Z,1.15
2022-11-29T09:20:47.539Z,1.25
2022-11-29T09:23:15.245Z,1.08
2022-11-29T09:25:49.729Z,1.13
2022-11-29T09:28:17.560Z,1.20
2022-11-29T09:30:45.295Z,1.08
2022-11-29T09:33:14.406Z,1.30
2022-11-29T09:35:42.453Z,1.30
2022-11-29T09:38:12.424Z,1.30
2022-11-29T09:40:45.320Z,1.20
2022-11-29T09:43:24.843Z,1.15
2022-11-29T09:45:58.277Z,1.00
2022-11-29T09:48:48.511Z,0.90
2022-11-29T09:51:24.618Z,1.17
2022-11-29T09:54:05.461Z,0.90
2022-11-29T09:56:39.497Z,0.82
2022-11-29T09:59:12.500Z,0.90
2022-11-29T10:01:45.070Z,1.00
2022-11-29T10:04:19.479Z,1.10
2022-11-29T10:06:56.522Z,1.10
2022-11-29T10:09:33.556Z,1.10
2022-11-29T10:12:11.749Z,1.15
2022-11-29T10:14:45.867Z,0.93
2022-11-29T10:17:24.098Z,1.17
2022-11-29T10:19:59.303Z,1.00
2022-11-29T10:22:37.098Z,1.00
2022-11-29T10:25:07.928Z,0.95
2022-11-29T10:27:39.125Z,1.20
2022-11-29T10:30:13.331Z,0.98
2022-11-29T10:32:41.314Z,1.10
2022-11-29T10:35:15.474Z,1.05
2022-11-29T10:37:56.372Z,1.30
2022-11-29T10:40:35.013Z,0.80
2022-11-29T10:43:03.616Z,1.10
2022-11-29T10:45:33.929Z,1.00
2022-11-29T10:48:04.921Z,1.20
2022-11-29T10:50:37.306Z,1.05
2022-11-29T10:53:07.840Z,1.10
2022-11-29T10:55:41.526Z,1.30
2022-11-29T10:58:13.704Z,1.42
2022-11-29T11:00:53.577Z,1.40
2022-11-29T11:03:32.714Z,1.40
2022-11-29T11:06:05.394Z,1.58
2022-11-29T11:08:35.308Z,1.20
2022-11-29T11:11:06.120Z,1.40
2022-11-29T11:13:35.306Z,1.25
2022-11-29T11:16:12.002Z,1.35
2022-11-29T11:18:40.288Z,1.10
2022-11-29T11:21:12.953Z,1.20
2022-11-29T11:23:46.489Z,1.48
2022-11-29T11:26:15.788Z,1.00
2022-11-29T11:28:49.423Z,1.10
2022-11-29T11:31:26.911Z,1.10
2022-11-29T11:33:54.803Z,1.20
2022-11-29T11:36:26.181Z,1.33
2022-11-29T11:38:55.423Z,1.30
2022-11-29T11:41:47.538Z,1.20
2022-11-29T11:44:46.529Z,1.17
2022-11-29T11:47:18.874Z,0.93
2022-11-29T11:49:54.403Z,0.90
2022-11-29T11:52:26.169Z,1.20
2022-11-29T11:54:58.014Z,1.10
2022-11-29T11:57:27.295Z,1.15
2022-11-29T12:00:01.999Z,1.27
2022-11-29T12:02:38.759Z,1.35
2022-11-29T12:05:14.426Z,1.27
2022-11-29T12:10:40.904Z,1.27
2022-11-29T12:13:17.246Z,1.60
2022-11-29T12:15:48.389Z,1.40
2022-11-29T12:18:25.564Z,1.20
2022-11-29T12:20:58.176Z,1.10
2022-11-29T12:23:36.539Z,1.40
2022-11-29T12:26:13.714Z,1.50
2022-11-29T12:28:48.313Z,1.50
2022-11-29T12:31:28.464Z,1.40
2022-11-29T12:34:06.390Z,1.40
2022-11-29T12:36:45.776Z,1.20
2022-11-29T12:39:33.417Z,1.30
2022-11-29T12:42:10.652Z,1.65
2022-11-29T12:44:52.122Z,1.45
2022-11-29T12:47:37.981Z,1.50
2022-11-29T12:50:20.945Z,1.30
2022-11-29T12:52:57.455Z,1.42
2022-11-29T12:55:34.883Z,1.20
2022-11-29T12:58:09.429Z,1.55
2022-11-29T13:00:44.962Z,1.20
2022-11-29T13:03:20.661Z,1.58
2022-11-29T13:06:02.407Z,1.60
2022-11-29T13:08:55.167Z,1.33
2022-11-29T13:11:28.727Z,1.30
2022-11-29T13:14:27.077Z,1.55
2022-11-29T13:16:57.305Z,1.50
2022-11-29T13:19:34.199Z,1.60
2022-11-29T13:22:10.141Z,1.67
2022-11-29T13:24:44.144Z,1.52
2022-11-29T13:27:18.041Z,1.38
2022-11-29T13:29:46.400Z,1.40
2022-11-29T13:32:27.855Z,1.30
2022-11-29T13:35:00.533Z,1.60
2022-11-29T13:37:37.461Z,1.50
2022-11-29T13:40:20.043Z,1.60
2022-11-29T13:42:54.785Z,1.30
2022-11-29T13:45:26.405Z,1.30
2022-11-29T13:47:56.258Z,1.65
2022-11-29T13:50:39.097Z,1.63
2022-11-29T13:53:14.272Z,1.60
2022-11-29T13:55:47.807Z,1.42
2022-11-29T13:58:38.150Z,1.77
2022-11-29T14:01:09.657Z,1.55
2022-11-29T14:03:40.419Z,1.70
2022-11-29T14:06:21.219Z,1.73
2022-11-29T14:09:31.760Z,1.88
2022-11-29T14:12:05.772Z,1.50
2022-11-29T14:14:41.248Z,1.58
2022-11-29T14:17:34.915Z,1.50
2022-11-29T14:20:51.295Z,1.27
2022-11-29T14:23:33.236Z,1.50
2022-11-29T14:26:27.906Z,1.40
2022-11-29T14:28:56.656Z,1.60
2022-11-29T14:31:54.453Z,1.20
2022-11-29T14:34:44.383Z,1.50
2022-11-29T14:37:24.861Z,1.50
2022-11-29T14:39:55.770Z,1.50
2022-11-29T14:42:26.298Z,1.38
2022-11-29T14:44:57.669Z,1.23
2022-11-29T14:47:31.747Z,1.67
2022-11-29T14:50:04.028Z,1.65
2022-11-29T14:52:34.843Z,1.20
2022-11-29T14:55:07.159Z,1.92
2022-11-29T14:58:08.221Z,1.70
2022-11-29T15:00:44.568Z,1.73
2022-11-29T15:03:20.576Z,1.77
2022-11-29T15:05:52.222Z,1.70
2022-11-29T15:08:32.986Z,1.70
2022-11-29T15:11:05.256Z,1.48
2022-11-29T15:13:37.221Z,1.50
2022-11-29T15:16:29.864Z,1.70
2022-11-29T15:19:32.416Z,1.73
2022-11-29T15:22:14.908Z,1.50
2022-11-29T15:24:54.426Z,1.60
2022-11-29T15:27:23.047Z,1.98
2022-11-29T15:29:52.336Z,1.60
2022-11-29T15:32:26.151Z,1.80
2022-11-29T15:34:57.095Z,1.70
2022-11-29T15:37:42.637Z,1.63
2022-11-29T15:40:14.288Z,1.70
2022-11-29T15:42:44.193Z,1.55
2022-11-29T15:45:32.754Z,1.60
2022-11-29T15:48:16.976Z,1.80
2022-11-29T15:51:03.047Z,1.77
2022-11-29T15:53:36.568Z,2.00
2022-11-29T15:56:13.232Z,1.85
2022-11-29T15:58:41.823Z,1.80
2022-11-29T16:01:10.045Z,1.88
2022-11-29T16:03:41.525Z,1.98
2022-11-29T16:06:22.770Z,1.73
2022-11-29T16:08:52.330Z,2.30
2022-11-29T16:11:24.184Z,1.88
2022-11-29T16:14:14.139Z,1.98
2022-11-29T16:16:45.055Z,1.75
2022-11-29T16:19:23.060Z,1.80
2022-11-29T16:22:16.613Z,2.00
2022-11-29T16:24:53.772Z,1.90
2022-11-29T16:27:22.940Z,1.95
2022-11-29T16:29:54.928Z,2.05
2022-11-29T16:32:28.770Z,1.80
2022-11-29T16:34:58.789Z,2.08
2022-11-29T16:37:32.391Z,1.73
2022-11-29T16:40:03.827Z,1.65
2022-11-29T16:42:34.334Z,2.00
2022-11-29T16:45:29.944Z,1.80
2022-11-29T16:47:59.969Z,1.90
2022-11-29T16:50:29.679Z,1.70
2022-11-29T16:53:33.297Z,2.05
2022-11-29T16:56:01.068Z,2.00
2022-11-29T16:58:29.140Z,2.22
2022-11-29T17:00:56.985Z,2.00
2022-11-29T17:03:24.748Z,2.00
2022-11-29T17:05:53.678Z,2.15
2022-11-29T17:08:22.819Z,2.40
2022-11-29T17:10:50.555Z,2.10
2022-11-29T17:13:19.129Z,2.35
2022-11-29T17:15:46.881Z,1.90
2022-11-29T17:18:14.617Z,2.20
2022-11-29T17:20:42.497Z,2.00
2022-11-29T17:23:10.428Z,2.10
2022-11-29T17:25:39.716Z,2.58
2022-11-29T17:28:07.423Z,1.80
2022-11-29T17:30:35.174Z,2.03
2022-11-29T17:33:02.950Z,1.70
2022-11-29T17:35:30.727Z,1.85
2022-11-29T17:38:00.386Z,1.92
2022-11-29T17:42:57.252Z,1.60
2022-11-29T17:45:25.043Z,2.25
2022-11-29T17:47:52.891Z,2.20
2022-11-29T17:50:20.727Z,2.00
2022-11-29T17:52:48.543Z,2.20
2022-11-29T17:55:20.519Z,2.00
2022-11-29T17:57:48.608Z,1.77
2022-11-29T18:00:19.426Z,1.67
2022-11-29T18:02:47.201Z,1.90
2022-11-29T18:05:15.081Z,2.17
2022-11-29T18:07:57.887Z,1.73
2022-11-29T18:10:26.539Z,1.98
2022-11-29T18:12:54.298Z,1.83
2022-11-29T18:15:23.826Z,1.70
2022-11-29T18:17:51.611Z,1.80
2022-11-29T18:20:19.459Z,1.73
2022-11-29T18:22:47.317Z,1.40
2022-11-29T18:25:37.600Z,1.92
2022-11-29T18:28:02.817Z,1.83
2022-11-29T18:30:32.016Z,1.90
2022-11-29T18:33:00.024Z,1.90
2022-11-29T18:35:28.060Z,2.00
2022-11-29T18:38:14.615Z,1.80
2022-11-29T18:40:45.460Z,1.70
2022-11-29T18:43:13.809Z,1.45
2022-11-29T18:45:43.039Z,1.92
2022-11-29T18:48:10.880Z,2.00
2022-11-29T18:50:38.688Z,2.10
2022-11-29T18:53:06.454Z,1.88
2022-11-29T18:55:34.780Z,1.80
2022-11-29T18:58:02.542Z,1.50
2022-11-29T19:00:30.356Z,1.70
2022-11-29T19:02:59.537Z,1.55
2022-11-29T19:05:27.297Z,1.50
2022-11-29T19:07:55.047Z,1.50
2022-11-29T19:10:22.886Z,1.90
2022-11-29T19:12:50.642Z,1.50
2022-11-29T19:15:19.025Z,1.70
2022-11-29T19:17:46.811Z,1.70
2022-11-29T19:20:16.228Z,1.83
2022-11-29T19:22:44.012Z,1.50
2022-11-29T19:25:11.723Z,1.77
2022-11-29T19:27:40.104Z,2.10
2022-11-29T19:30:09.843Z,1.90
2022-11-29T19:32:37.616Z,1.73
2022-11-29T19:35:06.012Z,1.38
2022-11-29T19:37:35.265Z,1.80
2022-11-29T19:40:03.081Z,1.58
2022-11-29T19:42:30.780Z,1.50
2022-11-29T19:45:16.629Z,1.58
2022-11-29T19:47:45.022Z,1.63
2022-11-29T19:50:12.836Z,1.33
2022-11-29T19:52:42.050Z,1.55
2022-11-29T19:55:10.493Z,1.60
2022-11-29T19:57:38.392Z,1.27
2022-11-29T20:00:08.484Z,1.45
2022-11-29T20:02:38.907Z,1.63
2022-11-29T20:05:09.709Z,1.40
2022-11-29T20:07:37.757Z,1.42
2022-11-29T20:10:08.577Z,1.20
2022-11-29T20:12:36.422Z,1.33
2022-11-29T20:15:04.564Z,1.45
2022-11-29T20:17:32.668Z,1.45
2022-11-29T20:20:00.490Z,1.60
2022-11-29T20:22:28.556Z,1.38
2022-11-29T20:24:57.386Z,1.63
2022-11-29T20:27:27.635Z,1.70
2022-11-29T20:29:56.231Z,1.50
2022-11-29T20:32:25.143Z,1.70
2022-11-29T20:34:54.385Z,1.73
2022-11-29T20:37:32.827Z,1.48
2022-11-29T20:40:03.701Z,1.42
2022-11-29T20:42:43.902Z,1.50
2022-11-29T20:45:13.585Z,1.30
2022-11-29T20:50:17.618Z,1.50
2022-11-29T20:52:53.056Z,1.55
2022-11-29T20:55:20.877Z,1.65
2022-11-29T20:57:50.110Z,1.48
2022-11-29T21:00:19.141Z,1.70
2022-11-29T21:02:47.080Z,1.50
2022-11-29T21:05:16.234Z,1.80
2022-11-29T21:07:45.797Z,1.67
2022-11-29T21:12:43.135Z,1.80
2022-11-29T21:15:14.024Z,1.60
2022-11-29T21:17:43.565Z,1.70
2022-11-29T21:20:18.889Z,2.10
2022-11-29T21:22:54.940Z,1.90
2022-11-29T21:25:30.075Z,1.80
2022-11-29T21:27:58.182Z,1.50
2022-11-29T21:30:27.937Z,1.77
2022-11-29T21:32:56.359Z,1.80
2022-11-29T21:35:24.117Z,1.75
2022-11-29T21:37:55.780Z,1.65
2022-11-29T21:40:24.449Z,1.90
2022-11-29T21:42:52.230Z,1.77
2022-11-29T21:45:20.623Z,2.20
2022-11-29T21:47:49.805Z,1.83
2022-11-29T21:50:17.756Z,1.58
2022-11-29T21:52:45.525Z,1.90
2022-11-29T21:55:13.319Z,2.25
2022-11-29T21:57:41.175Z,2.42
2022-11-29T22:00:10.140Z,2.13
2022-11-29T22:02:38.180Z,2.15
2022-11-29T22:05:09.617Z,2.08
2022-11-29T22:07:37.578Z,2.60
2022-11-29T22:10:12.975Z,2.17
2022-11-29T22:12:49.456Z,2.10
2022-11-29T22:15:24.415Z,2.13
2022-11-29T22:17:52.878Z,2.00
2022-11-29T22:20:22.069Z,2.03
2022-11-29T22:22:50.108Z,1.90
2022-11-29T22:25:17.906Z,2.00
2022-11-29T22:27:45.682Z,2.05
2022-11-29T22:30:14.078Z,2.33
2022-11-29T22:32:41.801Z,1.77
2022-11-29T22:35:10.245Z,1.98
2022-11-29T22:37:39.383Z,1.92
2022-11-29T22:40:08.374Z,1.75
2022-11-29T22:42:39.039Z,1.75
2022-11-29T22:45:07.654Z,1.60
2022-11-29T22:47:35.367Z,1.90
2022-11-29T22:50:03.138Z,1.83
2022-11-29T22:52:30.993Z,2.05
2022-11-29T22:55:04.768Z,2.05
2022-11-29T22:57:33.084Z,2.10
2022-11-29T23:00:00.847Z,2.40
2022-11-29T23:02:29.024Z,2.00
2022-11-29T23:04:56.770Z,2.25
2022-11-29T23:07:24.624Z,1.70
2022-11-29T23:09:52.429Z,1.88
2022-11-29T23:12:21.747Z,1.90
2022-11-29T23:14:55.731Z,1.80
2022-11-29T23:17:24.198Z,1.73
2022-11-29T23:19:51.992Z,2.15
2022-11-29T23:22:19.786Z,1.67
2022-11-29T23:24:47.636Z,1.70
2022-11-29T23:27:15.648Z,1.60
2022-11-29T23:29:44.761Z,1.70
2022-11-29T23:32:12.554Z,2.08
2022-11-29T23:34:40.308Z,1.80
2022-11-29T23:37:08.050Z,2.03
2022-11-29T23:39:35.846Z,2.00
2022-11-29T23:42:03.699Z,2.20
2022-11-29T23:44:31.464Z,1.50
2022-11-29T23:47:00.526Z,1.95
2022-11-29T23:49:28.324Z,1.77
2022-11-29T23:51:56.024Z,1.90
2022-11-29T23:54:24.384Z,1.92
2022-11-29T23:56:52.131Z,1.88
2022-11-29T23:59:19.903Z,1.80
